Time;durP1;ratioP1;P1;durP2;ratioP2;P2;SDS_P1;SDS_P2;PMS_P1;PMS_P2;Temp;Humidity;BMP_temperature;BMP_pressure;BME280_temperature;BME280_humidity;BME280_pressure;Samples;Min_cycle;Max_cycle;Signal;HPM_P1;HPM_P2
2022/11/10 00:02:06;;;;;;;9.00;8.53;;;13.80;99.90;;;;;;10414563;28;20208;-81
2022/11/10 00:07:28;;;;;;;9.13;8.43;;;13.80;99.90;;;;;;10413719;28;20283;-80
2022/11/10 00:12:49;;;;;;;10.23;9.43;;;13.80;99.90;;;;;;10417800;28;20267;-79
2022/11/10 00:18:10;;;;;;;9.30;8.60;;;13.80;99.90;;;;;;10419973;28;20238;-83
2022/11/10 00:23:31;;;;;;;9.03;8.33;;;13.80;99.90;;;;;;10418069;28;20496;-84
2022/11/10 00:28:51;;;;;;;8.33;7.60;;;13.80;99.90;;;;;;10420398;28;20248;-82
2022/11/10 00:34:15;;;;;;;8.33;7.83;;;13.80;99.90;;;;;;10432353;28;20248;-82
2022/11/10 00:39:36;;;;;;;9.13;8.20;;;13.80;99.90;;;;;;10425610;28;20224;-81
2022/11/10 00:44:56;;;;;;;8.40;7.80;;;13.80;99.90;;;;;;10407720;28;20201;-82
2022/11/10 00:50:19;;;;;;;7.73;7.20;;;13.80;99.90;;;;;;10431227;28;20673;-83
2022/11/10 00:55:41;;;;;;;8.30;7.70;;;13.90;99.90;;;;;;10414655;28;20209;-80
2022/11/10 01:01:02;;;;;;;7.93;7.53;;;13.80;99.90;;;;;;10416248;28;20214;-81
2022/11/10 01:06:24;;;;;;;8.00;7.40;;;13.80;99.90;;;;;;10416750;28;20193;-81
2022/11/10 01:11:45;;;;;;;7.60;7.00;;;13.80;99.90;;;;;;10416511;28;20241;-82
2022/11/10 01:17:06;;;;;;;8.77;7.93;;;13.80;99.90;;;;;;10412167;28;20201;-82
2022/11/10 01:22:28;;;;;;;8.60;8.00;;;13.80;99.90;;;;;;10421364;28;20201;-82
2022/11/10 01:27:48;;;;;;;8.07;7.37;;;13.80;99.90;;;;;;10357156;28;20246;-79
2022/11/10 01:33:09;;;;;;;8.13;7.53;;;13.70;99.90;;;;;;10414882;28;20227;-80
2022/11/10 01:38:33;;;;;;;9.50;8.10;;;13.70;99.90;;;;;;10413476;28;20292;-80
2022/11/10 01:43:54;;;;;;;8.30;7.70;;;13.70;99.90;;;;;;10410906;28;20190;-80
2022/11/10 01:49:17;;;;;;;7.90;7.40;;;13.70;99.90;;;;;;10412631;28;20289;-81
2022/11/10 01:54:43;;;;;;;8.07;7.57;;;13.70;99.90;;;;;;10392222;28;20220;-80
2022/11/10 02:00:05;;;;;;;8.23;7.57;;;13.60;99.90;;;;;;10406801;28;20321;-78
2022/11/10 02:05:26;;;;;;;7.97;7.17;;;13.50;99.90;;;;;;10406861;28;20190;-81
2022/11/10 02:10:48;;;;;;;8.87;8.03;;;13.40;99.90;;;;;;10409089;28;20213;-80
2022/11/10 02:16:10;;;;;;;9.20;7.60;;;13.30;99.90;;;;;;10417035;28;20214;-82
2022/11/10 02:21:32;;;;;;;8.00;7.40;;;13.20;99.90;;;;;;10417534;28;20218;-80
2022/11/10 02:26:55;;;;;;;8.80;7.90;;;13.10;99.90;;;;;;10420710;28;20204;-82
2022/11/10 02:32:16;;;;;;;8.37;7.73;;;13.00;99.90;;;;;;10406868;28;20680;-80
2022/11/10 02:37:38;;;;;;;7.70;7.30;;;13.00;99.90;;;;;;10378696;28;20299;-81
2022/11/10 02:42:58;;;;;;;8.97;8.30;;;12.90;99.90;;;;;;10416241;28;20194;-81
2022/11/10 02:48:19;;;;;;;9.40;8.50;;;12.90;99.90;;;;;;10421565;28;20228;-81
2022/11/10 02:53:40;;;;;;;10.20;9.20;;;12.80;99.90;;;;;;10423002;28;20209;-79
2022/11/10 02:59:02;;;;;;;9.07;8.40;;;12.70;99.90;;;;;;10421656;28;20296;-80
2022/11/10 03:04:23;;;;;;;9.33;8.43;;;12.60;99.90;;;;;;10362698;28;20202;-81
2022/11/10 03:09:45;;;;;;;9.13;8.40;;;12.60;99.90;;;;;;10401737;28;20217;-80
2022/11/10 03:15:06;;;;;;;13.60;8.67;;;12.50;99.90;;;;;;10419954;28;20210;-80
2022/11/10 03:20:26;;;;;;;9.77;8.90;;;12.40;99.90;;;;;;10403378;28;20250;-78
2022/11/10 03:25:48;;;;;;;9.50;8.67;;;12.40;99.90;;;;;;10418625;28;20274;-79
2022/11/10 03:31:09;;;;;;;12.00;9.93;;;12.40;99.90;;;;;;10400843;28;20316;-80
2022/11/10 03:36:30;;;;;;;10.80;9.50;;;12.50;99.90;;;;;;10419023;28;20504;-79
2022/11/10 03:41:51;;;;;;;10.40;9.40;;;12.50;99.90;;;;;;10404812;28;20572;-81
2022/11/10 03:47:12;;;;;;;9.93;9.30;;;12.50;99.90;;;;;;10415867;28;20190;-79
2022/11/10 03:52:33;;;;;;;9.05;8.55;;;12.50;99.90;;;;;;10415797;28;20713;-81
2022/11/10 03:57:54;;;;;;;10.27;9.27;;;12.50;99.90;;;;;;10417244;28;20460;-81
2022/11/10 04:03:15;;;;;;;10.97;8.93;;;12.50;99.90;;;;;;10398574;28;20192;-81
2022/11/10 04:19:55;;;;;;;13.03;11.73;;;12.40;99.90;;;;;;10416795;28;20222;-80
2022/11/10 04:25:15;;;;;;;12.30;11.23;;;12.40;99.90;;;;;;10418489;28;20277;-80
2022/11/10 04:30:37;;;;;;;10.70;9.80;;;12.40;99.90;;;;;;10417567;28;20311;-81
2022/11/10 04:35:58;;;;;;;11.07;10.17;;;12.40;99.90;;;;;;10375405;28;20258;-81
2022/11/10 04:41:19;;;;;;;11.30;10.40;;;12.50;99.90;;;;;;10396658;28;20210;-81
2022/11/10 04:46:42;;;;;;;10.37;9.27;;;12.50;99.90;;;;;;10416177;28;20248;-81
2022/11/10 04:52:03;;;;;;;13.00;11.90;;;12.40;99.90;;;;;;10415687;28;20214;-81
2022/11/10 04:57:24;;;;;;;11.20;10.30;;;12.40;99.90;;;;;;10416899;28;20217;-81
2022/11/10 05:02:45;;;;;;;11.63;10.50;;;12.30;99.90;;;;;;10433353;28;20189;-82
2022/11/10 05:08:06;;;;;;;11.37;10.57;;;12.30;99.90;;;;;;10413671;28;20214;-84
2022/11/10 05:13:26;;;;;;;13.00;12.00;;;12.20;99.90;;;;;;10413926;28;20693;-81
2022/11/10 05:18:53;;;;;;;12.67;11.50;;;12.10;99.90;;;;;;10461224;22;20239;-81
2022/11/10 05:24:22;;;;;;;12.13;11.33;;;12.10;99.90;;;;;;10455846;28;20327;-82
2022/11/10 05:30:00;;;;;;;11.87;10.87;;;12.10;99.90;;;;;;10429129;28;20217;-83
2022/11/10 05:35:27;;;;;;;12.20;11.50;;;12.00;99.90;;;;;;10443953;28;20224;-80
2022/11/10 05:40:58;;;;;;;26.90;22.70;;;11.90;99.90;;;;;;10403654;28;20222;-79
2022/11/10 05:46:30;;;;;;;12.63;11.30;;;11.90;99.90;;;;;;10397304;28;20208;-80
2022/11/10 05:51:52;;;;;;;15.03;12.53;;;11.80;99.90;;;;;;10443739;28;20221;-79
2022/11/10 05:57:12;;;;;;;31.03;19.57;;;11.60;99.90;;;;;;10464796;28;20637;-80
2022/11/10 06:02:33;;;;;;;34.53;26.30;;;11.50;99.90;;;;;;10467365;28;20197;-81
2022/11/10 06:07:55;;;;;;;11.40;10.50;;;11.50;99.90;;;;;;10472221;28;20226;-81
2022/11/10 06:13:16;;;;;;;12.20;11.07;;;11.40;99.90;;;;;;10480658;28;20193;-80
2022/11/10 06:18:36;;;;;;;12.57;11.53;;;11.40;99.90;;;;;;10459524;28;20300;-80
2022/11/10 06:23:58;;;;;;;9.43;8.57;;;11.30;99.90;;;;;;10415186;28;20563;-80
2022/11/10 06:29:19;;;;;;;11.00;10.10;;;11.30;99.90;;;;;;10447207;28;20275;-81
2022/11/10 06:34:39;;;;;;;13.20;12.30;;;11.30;99.90;;;;;;10436629;28;20269;-79
2022/11/10 06:40:01;;;;;;;10.73;9.93;;;11.30;99.90;;;;;;10435870;28;20216;-78
2022/11/10 06:45:21;;;;;;;12.40;11.60;;;11.30;99.90;;;;;;10443529;28;20197;-80
2022/11/10 06:50:42;;;;;;;17.67;10.30;;;11.30;99.90;;;;;;10461371;28;20659;-83
2022/11/10 06:56:04;;;;;;;12.73;10.07;;;11.40;99.90;;;;;;10463527;28;20209;-82
2022/11/10 07:01:26;;;;;;;11.37;10.27;;;11.50;99.90;;;;;;10463119;28;20292;-81
2022/11/10 07:06:46;;;;;;;10.67;9.97;;;11.50;99.90;;;;;;10464746;28;20249;-83
2022/11/10 07:12:08;;;;;;;10.40;9.80;;;11.60;99.90;;;;;;10480492;28;20203;-81
2022/11/10 07:17:29;;;;;;;12.87;11.73;;;11.70;99.90;;;;;;10462504;28;20387;-81
2022/11/10 07:22:49;;;;;;;12.60;11.40;;;11.80;99.90;;;;;;10447244;22;20226;-79
2022/11/10 07:28:12;;;;;;;12.37;11.37;;;11.80;99.90;;;;;;10430008;28;20205;-77
2022/11/10 07:33:32;;;;;;;12.10;11.17;;;11.90;99.90;;;;;;10390782;28;20210;-78
2022/11/10 07:38:53;;;;;;;14.07;12.97;;;12.00;99.90;;;;;;10366332;28;20210;-79
2022/11/10 07:44:15;;;;;;;32.37;25.97;;;12.00;99.90;;;;;;10385479;28;20978;-77
2022/11/10 07:49:35;;;;;;;43.80;28.93;;;12.00;99.90;;;;;;10413708;28;20218;-80
2022/11/10 07:54:56;;;;;;;27.43;21.43;;;12.00;99.90;;;;;;10379747;28;20212;-78
2022/11/10 08:00:19;;;;;;;17.77;14.67;;;12.00;99.90;;;;;;10401186;28;20313;-79
2022/11/10 08:05:41;;;;;;;17.53;15.83;;;12.00;99.90;;;;;;10385375;28;20181;-79
2022/11/10 08:11:01;;;;;;;14.57;13.30;;;12.00;99.90;;;;;;10416663;28;20740;-80
2022/11/10 08:16:23;;;;;;;13.77;12.57;;;12.00;99.90;;;;;;10406708;28;20693;-79
2022/11/10 08:21:44;;;;;;;12.37;11.33;;;12.00;99.90;;;;;;10415380;28;20229;-79
2022/11/10 08:27:05;;;;;;;13.30;12.20;;;12.00;99.90;;;;;;10416437;28;20196;-78
2022/11/10 08:32:26;;;;;;;11.50;10.53;;;12.00;99.90;;;;;;10407792;28;20241;-79
2022/11/10 08:37:47;;;;;;;10.47;9.77;;;12.00;99.90;;;;;;10413541;28;20245;-79
2022/11/10 08:43:09;;;;;;;10.27;9.50;;;12.10;99.90;;;;;;10399331;28;20206;-80
2022/11/10 08:48:31;;;;;;;8.83;8.23;;;12.20;99.90;;;;;;10403689;28;20214;-79
2022/11/10 08:53:51;;;;;;;10.57;9.77;;;12.20;99.90;;;;;;10386646;28;20198;-79
2022/11/10 08:59:11;;;;;;;9.90;9.10;;;12.30;99.90;;;;;;10406331;28;20246;-79
2022/11/10 09:04:34;;;;;;;9.67;8.93;;;12.40;99.90;;;;;;10387670;28;20213;-79
2022/11/10 09:09:54;;;;;;;9.83;9.17;;;12.50;99.90;;;;;;10384089;28;20666;-79
2022/11/10 09:15:15;;;;;;;9.67;9.00;;;12.50;99.90;;;;;;10388657;28;20641;-79
2022/11/10 09:20:37;;;;;;;9.23;8.47;;;12.60;99.90;;;;;;10387345;28;20225;-81
2022/11/10 09:25:58;;;;;;;10.57;9.73;;;12.70;99.90;;;;;;10394247;28;20186;-79
2022/11/10 09:31:18;;;;;;;10.33;9.43;;;12.70;99.90;;;;;;10390718;28;20225;-79
2022/11/10 09:36:40;;;;;;;8.47;7.97;;;12.80;99.90;;;;;;10411913;28;20222;-81
2022/11/10 09:42:01;;;;;;;8.63;7.90;;;12.80;99.90;;;;;;10388460;28;20289;-80
2022/11/10 09:47:26;;;;;;;7.00;6.43;;;12.90;99.90;;;;;;10387207;28;20193;-81
2022/11/10 09:52:51;;;;;;;5.70;4.73;;;12.90;99.90;;;;;;10385542;28;20645;-82
2022/11/10 09:58:13;;;;;;;9.00;6.27;;;12.90;99.90;;;;;;10382834;28;20293;-80
2022/11/10 10:03:38;;;;;;;5.83;5.37;;;13.00;99.90;;;;;;10383776;28;20729;-81
2022/11/10 10:09:11;;;;;;;5.87;5.47;;;13.00;99.90;;;;;;10377130;28;20219;-81
2022/11/10 10:14:45;;;;;;;6.83;4.30;;;13.10;99.90;;;;;;10389566;28;20244;-81
2022/11/10 10:20:15;;;;;;;6.00;5.00;;;13.10;99.90;;;;;;10383565;28;20314;-81
2022/11/10 10:25:39;;;;;;;8.20;7.50;;;13.10;99.90;;;;;;10394187;28;20203;-82
2022/11/10 10:31:13;;;;;;;7.57;6.87;;;13.20;99.90;;;;;;10394504;28;20206;-80
2022/11/10 10:36:34;;;;;;;5.73;5.23;;;13.20;99.90;;;;;;10380335;28;20214;-79
2022/11/10 10:41:58;;;;;;;4.50;4.20;;;13.30;99.90;;;;;;10381563;28;20266;-80
2022/11/10 10:47:18;;;;;;;6.27;3.97;;;13.30;99.90;;;;;;10382025;28;20197;-80
2022/11/10 10:52:39;;;;;;;4.40;4.00;;;13.30;99.90;;;;;;10372009;28;20216;-80
2022/11/10 10:58:04;;;;;;;4.43;4.10;;;13.30;99.90;;;;;;10381407;28;20444;-81
2022/11/10 11:03:28;;;;;;;3.90;3.60;;;13.40;99.90;;;;;;10364862;28;20230;-80
2022/11/10 11:09:01;;;;;;;4.17;3.80;;;13.40;99.90;;;;;;10379399;28;20227;-80
2022/11/10 11:14:24;;;;;;;4.40;4.00;;;13.50;99.90;;;;;;10377385;28;20217;-81
2022/11/10 11:19:45;;;;;;;4.00;3.80;;;13.50;99.90;;;;;;10389388;28;20249;-81
2022/11/10 11:25:16;;;;;;;10.67;4.77;;;13.50;99.90;;;;;;10423753;28;20226;-80
2022/11/10 11:30:51;;;;;;;4.40;4.10;;;13.50;99.90;;;;;;10415116;28;20214;-80
2022/11/10 11:36:24;;;;;;;3.70;3.40;;;13.50;99.90;;;;;;10416338;28;20681;-81
2022/11/10 11:41:52;;;;;;;4.47;4.07;;;13.50;99.90;;;;;;10407786;28;20285;-81
2022/11/10 11:47:28;;;;;;;3.63;3.20;;;13.60;99.90;;;;;;10435493;28;20186;-81
2022/11/10 11:53:00;;;;;;;6.20;5.63;;;13.60;99.90;;;;;;10392119;28;20218;-80
2022/11/10 11:58:29;;;;;;;4.73;3.90;;;13.70;99.90;;;;;;10355501;28;20203;-81
2022/11/10 12:04:16;;;;;;;3.80;3.50;;;13.70;99.90;;;;;;10428609;28;20197;-81
2022/11/10 12:09:44;;;;;;;2.80;2.60;;;13.80;99.90;;;;;;10389601;28;20214;-80
2022/11/10 12:15:18;;;;;;;3.83;3.53;;;13.80;99.90;;;;;;10388248;28;20202;-80
2022/11/10 12:20:50;;;;;;;3.97;3.23;;;13.70;99.90;;;;;;10398990;28;20222;-81
2022/11/10 12:26:20;;;;;;;5.53;5.13;;;13.70;99.90;;;;;;10389043;28;20198;-79
2022/11/10 12:31:43;;;;;;;4.10;3.47;;;13.70;99.90;;;;;;10394767;28;20225;-80
2022/11/10 12:37:10;;;;;;;3.93;3.63;;;13.70;99.90;;;;;;10390950;28;20218;-79
2022/11/10 12:42:33;;;;;;;4.07;3.70;;;13.70;99.90;;;;;;10389293;28;20221;-79
2022/11/10 12:47:55;;;;;;;5.90;4.70;;;13.70;99.90;;;;;;10392174;28;20190;-78
2022/11/10 12:53:22;;;;;;;4.90;4.50;;;13.70;99.90;;;;;;10375875;28;20201;-80
2022/11/10 12:58:43;;;;;;;27.87;23.97;;;13.70;99.90;;;;;;10390450;28;20218;-79
2022/11/10 13:04:05;;;;;;;5.40;4.90;;;13.80;99.90;;;;;;10394207;28;20194;-80
2022/11/10 13:09:31;;;;;;;3.97;2.60;;;13.80;99.90;;;;;;10374481;28;20218;-79
2022/11/10 13:14:51;;;;;;;4.73;4.10;;;13.90;99.90;;;;;;10391517;28;20210;-81
2022/11/10 13:20:42;;;;;;;4.83;3.73;;;13.90;99.90;;;;;;10391101;22;20539;-80
2022/11/10 13:26:09;;;;;;;4.20;3.80;;;14.00;99.90;;;;;;10316701;28;20204;-80
2022/11/10 13:31:51;;;;;;;7.33;3.40;;;14.00;99.90;;;;;;10305379;28;20228;-80
2022/11/10 13:37:49;;;;;;;4.27;3.50;;;14.00;99.90;;;;;;10298273;28;20219;-80
2022/11/10 13:43:26;;;;;;;4.57;4.27;;;14.00;99.90;;;;;;10325167;28;20235;-80
2022/11/10 13:49:10;;;;;;;5.40;3.80;;;14.00;99.90;;;;;;10296871;28;20231;-79
2022/11/10 13:54:52;;;;;;;4.73;4.33;;;14.00;99.90;;;;;;10285850;28;20207;-80
2022/11/10 14:00:26;;;;;;;4.70;4.30;;;14.00;99.90;;;;;;10291390;28;20218;-80
2022/11/10 14:06:08;;;;;;;4.23;3.80;;;14.00;99.90;;;;;;10302475;28;20194;-79
2022/11/10 14:11:35;;;;;;;4.03;3.53;;;14.00;99.90;;;;;;10303510;28;20223;-80
2022/11/10 14:16:58;;;;;;;5.23;3.73;;;14.00;99.90;;;;;;10342894;28;20238;-79
2022/11/10 14:22:24;;;;;;;4.97;3.87;;;13.90;99.90;;;;;;10311721;28;20589;-79
2022/11/10 14:27:45;;;;;;;4.00;2.53;;;13.90;99.90;;;;;;10318666;28;20191;-80
2022/11/10 14:33:11;;;;;;;3.40;3.20;;;13.80;99.90;;;;;;10342237;28;20239;-79
2022/11/10 14:38:34;;;;;;;3.70;3.40;;;13.80;99.90;;;;;;10342460;28;20214;-78
2022/11/10 14:44:03;;;;;;;3.50;3.20;;;13.80;99.90;;;;;;10313127;28;20187;-79
2022/11/10 14:49:27;;;;;;;3.40;3.20;;;13.70;99.90;;;;;;10343255;28;20302;-79
2022/11/10 14:54:48;;;;;;;4.40;4.20;;;13.60;99.90;;;;;;10343029;28;20203;-80
2022/11/10 15:00:16;;;;;;;5.03;4.63;;;13.50;99.90;;;;;;10325452;28;20221;-80
2022/11/10 15:05:39;;;;;;;5.23;4.30;;;13.50;99.90;;;;;;10343347;28;20194;-80
2022/11/10 15:11:00;;;;;;;5.83;5.30;;;13.40;99.90;;;;;;10343240;28;20211;-79
2022/11/10 15:16:24;;;;;;;9.37;5.37;;;13.30;99.90;;;;;;10257422;29;20200;-78
2022/11/10 15:21:46;;;;;;;5.90;5.03;;;13.20;99.90;;;;;;10272796;28;20315;-80
2022/11/10 15:27:13;;;;;;;5.63;5.07;;;13.10;99.90;;;;;;10340775;28;20566;-80
2022/11/10 15:32:35;;;;;;;6.80;6.03;;;13.10;99.90;;;;;;10341340;28;20753;-79
2022/11/10 15:38:03;;;;;;;5.33;4.50;;;13.00;99.90;;;;;;10324303;28;20231;-79
2022/11/10 15:43:27;;;;;;;6.37;5.87;;;13.00;99.90;;;;;;10340130;28;20238;-80
2022/11/10 15:48:50;;;;;;;8.27;7.60;;;12.90;99.90;;;;;;10339304;28;20187;-80
2022/11/10 15:54:12;;;;;;;11.03;7.03;;;12.80;99.90;;;;;;10337902;28;20222;-80
2022/11/10 15:59:33;;;;;;;4.87;3.80;;;12.80;99.90;;;;;;10339605;28;20250;-80
2022/11/10 16:04:54;;;;;;;7.03;6.33;;;12.70;99.90;;;;;;10338564;28;20199;-80
2022/11/10 16:10:16;;;;;;;6.77;6.33;;;12.60;99.90;;;;;;10339491;28;20211;-80
2022/11/10 16:15:38;;;;;;;10.97;7.20;;;12.60;99.90;;;;;;10339007;28;20206;-80
2022/11/10 16:20:58;;;;;;;11.17;10.00;;;12.50;99.90;;;;;;10340462;28;20660;-80
2022/11/10 16:26:23;;;;;;;12.10;5.90;;;12.40;99.90;;;;;;10340955;28;20226;-80
2022/11/10 16:31:45;;;;;;;10.37;7.10;;;12.40;99.90;;;;;;10341132;28;20221;-79
2022/11/10 16:37:06;;;;;;;17.73;6.70;;;12.30;99.90;;;;;;10350945;28;20219;-78
2022/11/10 16:42:28;;;;;;;10.13;6.90;;;12.30;99.90;;;;;;10349426;28;20222;-80
2022/11/10 16:47:51;;;;;;;10.77;7.50;;;12.20;99.90;;;;;;10263053;29;20196;-79
2022/11/10 16:53:16;;;;;;;9.20;8.40;;;12.20;99.90;;;;;;10243997;28;20220;-80
2022/11/10 16:58:38;;;;;;;11.40;7.93;;;12.10;99.90;;;;;;10337354;28;20580;-79
2022/11/10 17:04:01;;;;;;;8.37;7.47;;;12.00;99.90;;;;;;10339353;28;20187;-80
2022/11/10 17:09:25;;;;;;;7.07;6.50;;;12.00;99.90;;;;;;10340495;28;20265;-80
2022/11/10 17:14:47;;;;;;;9.90;8.00;;;11.90;99.90;;;;;;10341294;28;20274;-82
2022/11/10 17:20:10;;;;;;;8.07;7.27;;;11.90;99.90;;;;;;10319010;28;20401;-80
2022/11/10 17:25:33;;;;;;;8.87;8.00;;;11.90;99.90;;;;;;10303622;28;20200;-79
2022/11/10 17:30:55;;;;;;;8.90;8.00;;;11.80;99.90;;;;;;10287604;28;20229;-81
2022/11/10 17:36:19;;;;;;;7.70;6.93;;;11.80;99.90;;;;;;10314848;28;20203;-80
2022/11/10 17:41:40;;;;;;;7.97;7.30;;;11.70;99.90;;;;;;10289295;28;20315;-81
2022/11/10 17:47:02;;;;;;;9.30;7.10;;;11.70;99.90;;;;;;10312602;28;20311;-82
2022/11/10 17:52:26;;;;;;;8.10;7.30;;;11.60;99.90;;;;;;10341619;28;20418;-82
2022/11/10 17:57:46;;;;;;;8.60;7.20;;;11.60;99.90;;;;;;10322118;28;20207;-79
2022/11/10 18:03:14;;;;;;;7.90;7.20;;;11.60;99.90;;;;;;10295428;28;20230;-80
2022/11/10 18:08:36;;;;;;;11.00;8.43;;;11.60;99.90;;;;;;10300135;28;20187;-78
2022/11/10 18:13:57;;;;;;;9.83;8.83;;;11.60;99.90;;;;;;10293710;28;20771;-79
2022/11/10 18:19:19;;;;;;;12.10;9.17;;;11.60;99.90;;;;;;10296632;28;20310;-79
2022/11/10 18:24:41;;;;;;;9.93;8.73;;;11.60;99.90;;;;;;10296036;28;20606;-80
2022/11/10 18:30:02;;;;;;;8.63;7.93;;;11.60;99.90;;;;;;10292188;28;20290;-80
2022/11/10 18:35:25;;;;;;;8.87;8.13;;;11.60;99.90;;;;;;10315413;28;20247;-80
2022/11/10 18:40:46;;;;;;;11.80;10.80;;;11.60;99.90;;;;;;10304394;28;20294;-80
2022/11/10 18:46:06;;;;;;;14.63;9.70;;;11.60;99.90;;;;;;10302400;28;20192;-80
2022/11/10 18:51:28;;;;;;;14.60;12.97;;;11.60;99.90;;;;;;10304906;28;20226;-80
2022/11/10 18:56:49;;;;;;;11.27;10.20;;;11.50;99.90;;;;;;10298487;28;20223;-79
2022/11/10 19:02:11;;;;;;;10.63;9.73;;;11.40;99.90;;;;;;10288631;28;20215;-79
2022/11/10 19:07:33;;;;;;;7.70;6.93;;;11.40;99.90;;;;;;10307332;28;20219;-79
2022/11/10 19:12:55;;;;;;;7.53;7.03;;;11.40;99.90;;;;;;10304458;28;20319;-79
2022/11/10 19:18:16;;;;;;;11.80;9.97;;;11.30;99.90;;;;;;10310699;28;20220;-80
2022/11/10 19:23:41;;;;;;;15.80;14.10;;;11.30;99.90;;;;;;10310326;28;20220;-80
2022/11/10 19:29:01;;;;;;;19.73;15.50;;;11.20;99.90;;;;;;10314043;28;20774;-78
2022/11/10 19:34:23;;;;;;;22.30;19.27;;;11.10;99.90;;;;;;10295783;28;20192;-80
2022/11/10 19:39:45;;;;;;;32.07;26.20;;;11.10;99.90;;;;;;10284406;28;20238;-79
2022/11/10 19:45:14;;;;;;;18.13;16.43;;;11.10;99.90;;;;;;10294005;28;20683;-80
2022/11/10 19:50:35;;;;;;;15.67;14.00;;;11.10;99.90;;;;;;10303307;28;20226;-79
2022/11/10 19:56:02;;;;;;;41.10;34.90;;;11.10;99.90;;;;;;10267456;28;20215;-80
2022/11/10 20:01:26;;;;;;;21.43;18.63;;;11.10;99.90;;;;;;10296624;28;20298;-80
2022/11/10 20:06:47;;;;;;;21.10;19.00;;;11.10;99.90;;;;;;10307369;28;20189;-80
2022/11/10 20:12:11;;;;;;;13.80;12.27;;;11.10;99.90;;;;;;10301469;28;20214;-80
2022/11/10 20:17:31;;;;;;;12.43;11.17;;;11.10;99.90;;;;;;10296921;28;20524;-80
2022/11/10 20:22:52;;;;;;;10.93;10.00;;;11.10;99.90;;;;;;10297749;28;20308;-80
2022/11/10 20:28:14;;;;;;;19.10;14.30;;;11.10;99.90;;;;;;10289188;28;20192;-80
2022/11/10 20:33:35;;;;;;;13.20;12.10;;;11.10;99.90;;;;;;10302277;28;20219;-80
2022/11/10 20:39:00;;;;;;;13.07;12.00;;;11.00;99.90;;;;;;10289352;28;20318;-80
2022/11/10 20:44:22;;;;;;;73.27;46.43;;;11.00;99.90;;;;;;10296508;28;20196;-80
2022/11/10 20:49:43;;;;;;;35.27;27.73;;;11.00;99.90;;;;;;10293945;28;20203;-79
2022/11/10 20:55:04;;;;;;;10.03;9.33;;;11.00;99.90;;;;;;10292613;28;20220;-80
2022/11/10 21:00:26;;;;;;;10.23;9.20;;;10.90;99.90;;;;;;10280889;28;20634;-80
2022/11/10 21:05:51;;;;;;;12.20;10.47;;;10.80;99.90;;;;;;10299830;28;20254;-80
2022/11/10 21:12:48;;;;;;;11.97;10.87;;;10.80;99.90;;;;;;10307703;28;20711;-80
2022/11/10 21:16:54;;;;;;;10.97;9.87;;;10.80;99.90;;;;;;10303143;28;20212;-80
2022/11/10 21:22:15;;;;;;;11.43;9.60;;;10.70;99.90;;;;;;10307993;28;20256;-80
2022/11/10 21:27:35;;;;;;;9.43;8.63;;;10.70;99.90;;;;;;10307121;28;20206;-80
2022/11/10 21:32:57;;;;;;;10.20;8.70;;;10.60;99.90;;;;;;10317769;28;20219;-79
2022/11/10 21:38:18;;;;;;;15.20;13.70;;;10.60;99.90;;;;;;10313767;28;20705;-80
2022/11/10 21:43:39;;;;;;;15.30;13.80;;;10.60;99.90;;;;;;10312740;28;20215;-80
2022/11/10 21:49:00;;;;;;;19.73;17.93;;;10.60;99.90;;;;;;10316278;28;20205;-80
2022/11/10 21:54:21;;;;;;;14.70;13.40;;;10.60;99.90;;;;;;10305636;28;20574;-80
2022/11/10 21:59:42;;;;;;;14.03;10.83;;;10.60;99.90;;;;;;10313868;28;20254;-80
2022/11/10 22:05:04;;;;;;;16.43;11.33;;;10.50;99.90;;;;;;10302909;28;20241;-80
2022/11/10 22:21:58;;;;;;;11.90;10.90;;;10.40;99.90;;;;;;10303702;28;20721;-79
2022/11/10 22:27:19;;;;;;;11.37;10.37;;;10.40;99.90;;;;;;10312377;28;20283;-80
2022/11/10 22:32:39;;;;;;;15.67;11.27;;;10.40;99.90;;;;;;10297472;28;20266;-79
2022/11/10 22:38:05;;;;;;;11.90;10.80;;;10.40;99.90;;;;;;10306062;28;20216;-80
2022/11/10 22:49:08;;;;;;;12.43;11.20;;;10.40;99.90;;;;;;10277107;28;20207;-80
2022/11/10 22:54:30;;;;;;;11.40;10.60;;;10.30;99.90;;;;;;10294758;28;20211;-80
2022/11/10 22:59:50;;;;;;;10.17;9.17;;;10.30;99.90;;;;;;10284121;28;20223;-80
2022/11/10 23:05:11;;;;;;;10.00;8.90;;;10.30;99.90;;;;;;10343789;28;20652;-80
2022/11/10 23:10:32;;;;;;;11.40;10.30;;;10.20;99.90;;;;;;10337528;28;20277;-80
2022/11/10 23:15:57;;;;;;;10.27;9.40;;;10.20;99.90;;;;;;10335465;28;20199;-80
2022/11/10 23:21:20;;;;;;;9.97;8.97;;;10.10;99.90;;;;;;10285613;28;20220;-80
2022/11/10 23:26:42;;;;;;;10.63;8.90;;;10.10;99.90;;;;;;10271792;28;20211;-80
2022/11/10 23:32:02;;;;;;;10.13;9.13;;;10.10;99.90;;;;;;10273482;28;20212;-80
2022/11/10 23:37:23;;;;;;;9.77;8.87;;;10.10;99.90;;;;;;10278867;28;20584;-80
2022/11/10 23:42:46;;;;;;;8.73;7.83;;;10.10;99.90;;;;;;10283521;28;20212;-80
2022/11/10 23:48:07;;;;;;;9.07;8.27;;;10.00;99.90;;;;;;10276537;28;20323;-80
2022/11/10 23:53:27;;;;;;;8.60;7.70;;;10.00;99.90;;;;;;10272154;28;20221;-81
2022/11/10 23:58:49;;;;;;;8.70;8.10;;;10.00;99.90;;;;;;10273443;28;20569;-80
